Time;durP1;ratioP1;P1;durP2;ratioP2;P2;SDS_P1;SDS_P2;PMS_P1;PMS_P2;Temp;Humidity;BMP_temperature;BMP_pressure;BME280_temperature;BME280_humidity;BME280_pressure;Samples;Min_cycle;Max_cycle;Signal;HPM_P1;HPM_P2
2021/08/31 00:02:13;;;;;;;21.90;18.57;;;;;;;;;;5093895;28;20451;-72
2021/08/31 00:04:40;;;;;;;24.53;17.40;;;;;;;;;;5096081;28;20452;-73
2021/08/31 00:07:09;;;;;;;20.37;16.57;;;;;;;;;;5095686;28;20984;-73
2021/08/31 00:09:36;;;;;;;22.63;16.70;;;;;;;;;;5095518;28;20454;-73
2021/08/31 00:12:04;;;;;;;24.40;17.73;;;;;;;;;;5094419;28;20446;-72
2021/08/31 00:14:31;;;;;;;19.60;17.50;;;;;;;;;;5093936;28;20513;-72
2021/08/31 00:16:58;;;;;;;22.20;17.73;;;;;;;;;;5095119;28;20931;-73
2021/08/31 00:19:25;;;;;;;20.70;17.50;;;;;;;;;;5095391;28;20447;-73
2021/08/31 00:21:52;;;;;;;20.80;17.57;;;;;;;;;;5095215;28;20450;-72
2021/08/31 00:24:22;;;;;;;28.23;17.60;;;;;;;;;;5095703;28;20961;-73
2021/08/31 00:26:49;;;;;;;20.63;17.30;;;;;;;;;;5094960;28;20545;-72
2021/08/31 00:29:16;;;;;;;20.57;18.20;;;;;;;;;;5095514;28;20540;-73
2021/08/31 00:31:43;;;;;;;17.97;15.30;;;;;;;;;;5095026;28;20522;-73
2021/08/31 00:34:11;;;;;;;21.40;18.27;;;;;;;;;;5093008;28;20476;-73
2021/08/31 00:36:38;;;;;;;19.70;17.70;;;;;;;;;;5095073;28;20441;-73
2021/08/31 00:39:05;;;;;;;20.67;16.50;;;;;;;;;;5094710;28;20947;-73
2021/08/31 00:41:36;;;;;;;23.40;17.40;;;;;;;;;;5095241;28;20441;-73
2021/08/31 00:44:03;;;;;;;20.83;18.63;;;;;;;;;;5094758;28;20923;-73
2021/08/31 00:46:31;;;;;;;22.00;17.90;;;;;;;;;;5095155;28;20784;-73
2021/08/31 00:48:58;;;;;;;22.27;17.23;;;;;;;;;;5095092;28;20446;-73
2021/08/31 00:51:26;;;;;;;20.43;17.60;;;;;;;;;;5094779;28;20466;-73
2021/08/31 00:53:53;;;;;;;25.97;18.53;;;;;;;;;;5094664;28;20494;-73
2021/08/31 00:56:21;;;;;;;19.87;16.47;;;;;;;;;;5094653;28;20456;-72
2021/08/31 00:58:50;;;;;;;24.33;18.93;;;;;;;;;;5094651;28;20441;-73
2021/08/31 01:01:17;;;;;;;19.97;17.80;;;;;;;;;;5094542;28;20445;-73
2021/08/31 01:03:44;;;;;;;25.30;18.23;;;;;;;;;;5092362;28;20444;-73
2021/08/31 01:06:12;;;;;;;25.27;18.73;;;;;;;;;;5094493;28;20441;-73
2021/08/31 01:08:39;;;;;;;22.97;17.70;;;;;;;;;;5094778;28;20528;-73
2021/08/31 01:11:07;;;;;;;23.27;18.77;;;;;;;;;;5095563;28;20438;-73
2021/08/31 01:13:34;;;;;;;23.70;19.37;;;;;;;;;;5094453;28;20566;-73
2021/08/31 01:16:02;;;;;;;23.90;18.80;;;;;;;;;;5094092;28;20432;-73
2021/08/31 01:18:29;;;;;;;24.30;18.60;;;;;;;;;;5094525;28;20441;-73
2021/08/31 01:20:57;;;;;;;21.77;17.77;;;;;;;;;;5094178;28;20530;-73
2021/08/31 01:23:25;;;;;;;22.33;17.97;;;;;;;;;;5094277;28;20440;-73
2021/08/31 01:25:54;;;;;;;23.40;18.70;;;;;;;;;;5094059;28;20944;-73
2021/08/31 01:28:23;;;;;;;23.03;19.03;;;;;;;;;;5094471;28;20520;-73
2021/08/31 01:30:51;;;;;;;23.13;19.73;;;;;;;;;;5094063;28;20436;-73
2021/08/31 01:33:18;;;;;;;27.33;19.30;;;;;;;;;;5091807;28;20454;-72
2021/08/31 01:35:46;;;;;;;26.90;19.97;;;;;;;;;;5094401;28;20768;-73
2021/08/31 01:38:13;;;;;;;23.13;19.20;;;;;;;;;;5094062;28;20923;-73
2021/08/31 01:40:40;;;;;;;23.80;19.80;;;;;;;;;;5093861;28;20442;-72
2021/08/31 01:43:09;;;;;;;25.60;19.97;;;;;;;;;;5093671;28;20433;-72
2021/08/31 01:45:43;;;;;;;25.83;20.13;;;;;;;;;;5094613;28;20440;-72
2021/08/31 01:48:10;;;;;;;27.70;21.60;;;;;;;;;;5094317;28;20857;-72
2021/08/31 01:50:37;;;;;;;24.77;18.40;;;;;;;;;;5094228;28;20440;-73
2021/08/31 01:53:04;;;;;;;26.83;20.17;;;;;;;;;;5093092;28;20472;-72
2021/08/31 01:55:32;;;;;;;23.10;19.90;;;;;;;;;;5093917;28;20480;-73
2021/08/31 01:57:59;;;;;;;26.03;21.27;;;;;;;;;;5093973;28;20442;-73
2021/08/31 02:00:27;;;;;;;23.17;19.23;;;;;;;;;;5094182;28;20451;-72
2021/08/31 02:02:55;;;;;;;28.07;20.93;;;;;;;;;;5092361;28;20443;-71
2021/08/31 02:05:22;;;;;;;23.33;19.50;;;;;;;;;;5093538;28;20449;-73
2021/08/31 02:07:49;;;;;;;24.70;20.43;;;;;;;;;;5093543;28;20452;-73
2021/08/31 02:10:16;;;;;;;28.53;20.57;;;;;;;;;;5093463;28;20447;-73
2021/08/31 02:12:43;;;;;;;23.87;19.60;;;;;;;;;;5093752;28;20840;-72
2021/08/31 02:15:11;;;;;;;28.90;20.50;;;;;;;;;;5093341;28;20482;-73
2021/08/31 02:17:39;;;;;;;24.60;20.80;;;;;;;;;;5093360;28;20466;-73
2021/08/31 02:20:08;;;;;;;24.63;20.10;;;;;;;;;;5093166;28;20449;-73
2021/08/31 02:22:35;;;;;;;28.43;20.93;;;;;;;;;;5093378;28;20447;-72
2021/08/31 02:25:02;;;;;;;31.47;21.80;;;;;;;;;;5093554;28;20530;-72
2021/08/31 02:27:30;;;;;;;28.50;21.73;;;;;;;;;;5093292;28;20436;-72
2021/08/31 02:29:57;;;;;;;31.23;23.53;;;;;;;;;;5093271;28;20435;-72
2021/08/31 02:32:24;;;;;;;28.03;20.90;;;;;;;;;;5093556;28;20451;-72
2021/08/31 02:34:52;;;;;;;24.03;21.13;;;;;;;;;;5077384;28;20472;-72
2021/08/31 02:37:20;;;;;;;28.27;20.47;;;;;;;;;;5073708;28;20440;-72
2021/08/31 02:39:47;;;;;;;28.27;22.03;;;;;;;;;;5073323;28;20432;-72
2021/08/31 02:42:14;;;;;;;27.80;20.60;;;;;;;;;;5072970;28;20446;-72
2021/08/31 02:44:41;;;;;;;24.50;21.30;;;;;;;;;;5073198;28;20446;-72
2021/08/31 02:47:08;;;;;;;33.23;22.93;;;;;;;;;;5072938;28;20449;-72
2021/08/31 02:49:35;;;;;;;35.07;21.93;;;;;;;;;;5073562;28;20445;-72
2021/08/31 02:52:04;;;;;;;29.50;21.57;;;;;;;;;;5072913;28;20445;-72
2021/08/31 02:54:31;;;;;;;34.60;24.17;;;;;;;;;;5072822;28;20499;-72
2021/08/31 02:56:59;;;;;;;31.33;21.23;;;;;;;;;;5072870;28;20444;-72
2021/08/31 02:59:26;;;;;;;30.77;21.70;;;;;;;;;;5072818;28;20438;-72
2021/08/31 03:02:06;;;;;;;28.70;22.47;;;;;;;;;;5073122;28;20894;-72
2021/08/31 03:04:35;;;;;;;31.80;23.93;;;;;;;;;;5082914;28;20440;-72
2021/08/31 03:07:02;;;;;;;28.77;20.30;;;;;;;;;;5093216;28;20439;-72
2021/08/31 03:09:30;;;;;;;30.20;22.43;;;;;;;;;;5093225;28;20440;-72
2021/08/31 03:11:57;;;;;;;29.17;22.60;;;;;;;;;;5092892;28;20440;-72
2021/08/31 03:14:25;;;;;;;37.90;25.53;;;;;;;;;;5092617;28;20986;-72
2021/08/31 03:16:52;;;;;;;33.10;24.17;;;;;;;;;;5092979;28;20832;-72
2021/08/31 03:19:21;;;;;;;32.40;23.83;;;;;;;;;;5092893;28;20917;-72
2021/08/31 03:21:48;;;;;;;32.73;24.10;;;;;;;;;;5092806;28;20441;-72
2021/08/31 03:24:16;;;;;;;36.33;24.90;;;;;;;;;;5093100;28;20451;-71
2021/08/31 03:26:44;;;;;;;29.97;22.47;;;;;;;;;;5092947;28;20441;-73
2021/08/31 03:29:12;;;;;;;30.20;24.03;;;;;;;;;;5092428;28;20934;-73
2021/08/31 03:31:39;;;;;;;32.67;24.33;;;;;;;;;;5095294;28;20442;-73
2021/08/31 03:34:06;;;;;;;31.57;23.43;;;;;;;;;;5094744;28;20437;-72
2021/08/31 03:36:33;;;;;;;33.07;24.33;;;;;;;;;;5097297;28;20435;-72
2021/08/31 03:39:00;;;;;;;29.70;22.00;;;;;;;;;;5096808;28;20444;-73
2021/08/31 03:41:28;;;;;;;31.47;22.27;;;;;;;;;;5095813;28;20444;-72
2021/08/31 03:43:56;;;;;;;32.07;24.50;;;;;;;;;;5096281;28;20448;-71
2021/08/31 03:46:23;;;;;;;34.70;23.80;;;;;;;;;;5096272;28;20439;-72
2021/08/31 03:48:51;;;;;;;34.60;25.87;;;;;;;;;;5096272;28;20443;-72
2021/08/31 03:51:18;;;;;;;32.93;25.70;;;;;;;;;;5096299;28;20440;-72
2021/08/31 03:53:45;;;;;;;35.00;26.37;;;;;;;;;;5095900;28;20574;-72
2021/08/31 03:56:12;;;;;;;36.33;26.40;;;;;;;;;;5095981;28;20491;-72
2021/08/31 03:58:40;;;;;;;44.63;27.37;;;;;;;;;;5095767;28;20530;-72
2021/08/31 04:01:08;;;;;;;35.67;26.53;;;;;;;;;;5096415;28;20942;-73
2021/08/31 04:03:35;;;;;;;36.00;26.50;;;;;;;;;;5093822;28;20450;-72
2021/08/31 04:06:02;;;;;;;42.17;29.20;;;;;;;;;;5095264;28;20447;-72
2021/08/31 04:09:14;;;;;;;42.90;29.47;;;;;;;;;;5095941;28;20795;-73
2021/08/31 04:11:51;;;;;;;42.13;27.27;;;;;;;;;;5095209;28;20429;-74
2021/08/31 04:14:21;;;;;;;50.97;31.20;;;;;;;;;;5094500;28;20508;-72
2021/08/31 04:16:49;;;;;;;48.63;32.80;;;;;;;;;;5094442;28;20439;-72
2021/08/31 04:19:17;;;;;;;51.37;33.07;;;;;;;;;;5094998;28;20953;-76
2021/08/31 04:21:44;;;;;;;50.27;31.43;;;;;;;;;;5095877;28;20436;-74
2021/08/31 04:24:11;;;;;;;47.40;32.10;;;;;;;;;;5095297;28;20554;-78
2021/08/31 04:26:38;;;;;;;51.03;32.83;;;;;;;;;;5095231;28;20456;-77
2021/08/31 04:29:06;;;;;;;53.77;32.47;;;;;;;;;;5095042;28;20444;-76
2021/08/31 04:31:33;;;;;;;42.97;29.37;;;;;;;;;;5096121;28;20805;-77
2021/08/31 04:34:01;;;;;;;53.47;34.33;;;;;;;;;;5093105;28;20450;-76
2021/08/31 04:36:29;;;;;;;56.80;32.60;;;;;;;;;;5095231;28;20516;-77
2021/08/31 04:38:56;;;;;;;52.10;31.47;;;;;;;;;;5095046;28;21023;-78
2021/08/31 04:41:24;;;;;;;59.30;29.53;;;;;;;;;;5094254;28;20485;-77
2021/08/31 04:43:51;;;;;;;64.13;30.83;;;;;;;;;;5094892;28;20436;-77
2021/08/31 04:46:18;;;;;;;52.00;29.60;;;;;;;;;;5094670;28;20451;-76
2021/08/31 04:48:46;;;;;;;63.13;30.10;;;;;;;;;;5094888;28;20452;-77
2021/08/31 04:51:14;;;;;;;59.80;32.50;;;;;;;;;;5095966;28;20743;-78
2021/08/31 04:53:41;;;;;;;50.57;29.50;;;;;;;;;;5094712;28;20467;-77
2021/08/31 04:56:08;;;;;;;62.47;26.67;;;;;;;;;;5094750;28;20476;-77
2021/08/31 04:58:36;;;;;;;57.43;31.57;;;;;;;;;;5095492;28;20440;-76
2021/08/31 05:01:03;;;;;;;60.07;28.17;;;;;;;;;;5094772;28;20547;-76
2021/08/31 05:03:30;;;;;;;52.23;30.77;;;;;;;;;;5094427;28;20450;-77
2021/08/31 05:05:58;;;;;;;54.13;29.20;;;;;;;;;;5092858;28;20531;-76
2021/08/31 05:08:26;;;;;;;49.13;25.97;;;;;;;;;;5094606;28;20545;-76
2021/08/31 05:10:53;;;;;;;53.80;30.80;;;;;;;;;;5095110;28;20444;-77
2021/08/31 05:13:20;;;;;;;45.87;26.07;;;;;;;;;;5094720;28;20444;-76
2021/08/31 05:15:48;;;;;;;49.40;27.93;;;;;;;;;;5094572;28;20481;-76
2021/08/31 05:18:15;;;;;;;52.67;28.27;;;;;;;;;;5094449;28;20448;-76
2021/08/31 05:20:42;;;;;;;59.43;28.87;;;;;;;;;;5094523;28;20443;-76
2021/08/31 05:23:09;;;;;;;57.47;30.37;;;;;;;;;;5094393;28;20908;-77
2021/08/31 05:25:39;;;;;;;52.43;29.20;;;;;;;;;;5094438;28;20447;-76
2021/08/31 05:28:06;;;;;;;49.23;27.77;;;;;;;;;;5094404;28;20437;-76
2021/08/31 05:30:33;;;;;;;50.20;28.17;;;;;;;;;;5094381;28;20864;-76
2021/08/31 05:33:01;;;;;;;51.57;27.43;;;;;;;;;;5094399;28;20437;-73
2021/08/31 05:35:28;;;;;;;49.00;28.20;;;;;;;;;;5094152;28;20482;-72
2021/08/31 05:37:55;;;;;;;49.40;28.73;;;;;;;;;;5094385;28;20437;-72
2021/08/31 05:40:22;;;;;;;51.80;26.50;;;;;;;;;;5094969;28;20440;-72
2021/08/31 05:42:51;;;;;;;49.67;27.90;;;;;;;;;;5093938;28;20451;-72
2021/08/31 05:45:18;;;;;;;45.63;26.33;;;;;;;;;;5094102;28;20505;-72
2021/08/31 05:47:45;;;;;;;44.43;26.27;;;;;;;;;;5093793;28;20450;-72
2021/08/31 05:50:12;;;;;;;40.60;22.90;;;;;;;;;;5093764;28;20941;-72
2021/08/31 05:52:40;;;;;;;48.93;25.63;;;;;;;;;;5093494;28;20555;-72
2021/08/31 05:55:08;;;;;;;50.90;29.33;;;;;;;;;;5093571;28;20468;-72
2021/08/31 05:57:35;;;;;;;48.07;26.77;;;;;;;;;;5093973;28;20440;-72
2021/08/31 06:00:04;;;;;;;46.30;26.23;;;;;;;;;;5094345;28;20431;-72
2021/08/31 06:02:31;;;;;;;43.43;25.20;;;;;;;;;;5094274;28;20945;-73
2021/08/31 06:04:58;;;;;;;44.23;27.43;;;;;;;;;;5094367;28;20447;-72
2021/08/31 06:07:26;;;;;;;43.43;24.30;;;;;;;;;;5093593;28;20445;-72
2021/08/31 06:09:53;;;;;;;42.03;23.63;;;;;;;;;;5093467;28;20498;-72
2021/08/31 06:12:21;;;;;;;46.33;23.43;;;;;;;;;;5093737;28;20516;-72
2021/08/31 06:14:48;;;;;;;43.93;26.97;;;;;;;;;;5093302;28;20439;-72
2021/08/31 06:17:19;;;;;;;39.93;24.63;;;;;;;;;;5093346;28;20441;-72
2021/08/31 06:19:46;;;;;;;39.00;23.97;;;;;;;;;;5093972;28;20434;-72
2021/08/31 06:22:13;;;;;;;37.90;24.73;;;;;;;;;;5093495;28;20444;-72
2021/08/31 06:24:40;;;;;;;36.17;25.10;;;;;;;;;;5094397;28;20441;-72
2021/08/31 06:27:08;;;;;;;36.40;25.00;;;;;;;;;;5093103;28;20456;-72
2021/08/31 06:29:35;;;;;;;36.40;23.80;;;;;;;;;;5093445;28;20450;-72
2021/08/31 06:32:03;;;;;;;36.07;24.13;;;;;;;;;;5093071;28;20858;-72
2021/08/31 06:34:31;;;;;;;43.13;25.77;;;;;;;;;;5093398;28;20536;-72
2021/08/31 06:36:58;;;;;;;46.73;25.03;;;;;;;;;;5093326;28;20495;-72
2021/08/31 06:39:26;;;;;;;32.63;23.80;;;;;;;;;;5093182;28;20446;-72
2021/08/31 06:41:53;;;;;;;40.00;22.60;;;;;;;;;;5093166;28;20452;-72
2021/08/31 06:44:20;;;;;;;32.47;22.57;;;;;;;;;;5093041;28;20946;-73
2021/08/31 06:46:47;;;;;;;38.30;23.67;;;;;;;;;;5093822;28;20447;-72
2021/08/31 06:49:14;;;;;;;30.67;20.80;;;;;;;;;;5093384;28;20440;-72
2021/08/31 06:51:43;;;;;;;36.07;22.17;;;;;;;;;;5093353;28;20446;-72
2021/08/31 06:54:11;;;;;;;37.17;22.53;;;;;;;;;;5093186;28;20469;-72
2021/08/31 06:56:38;;;;;;;34.70;21.23;;;;;;;;;;5093237;28;20480;-72
2021/08/31 06:59:05;;;;;;;36.03;21.30;;;;;;;;;;5093359;28;20445;-72
2021/08/31 07:01:34;;;;;;;31.77;21.87;;;;;;;;;;5093385;28;20435;-72
2021/08/31 07:04:03;;;;;;;35.53;21.70;;;;;;;;;;5092965;28;20441;-72
2021/08/31 07:06:30;;;;;;;30.93;21.13;;;;;;;;;;5096971;28;20458;-72
2021/08/31 07:08:59;;;;;;;31.00;20.43;;;;;;;;;;5097634;28;20444;-72
2021/08/31 07:11:27;;;;;;;27.17;19.50;;;;;;;;;;5096671;28;20510;-72
2021/08/31 07:13:54;;;;;;;30.27;20.37;;;;;;;;;;5096713;28;20947;-72
2021/08/31 07:16:21;;;;;;;28.60;19.10;;;;;;;;;;5097134;28;20964;-72
2021/08/31 07:18:48;;;;;;;32.60;20.80;;;;;;;;;;5096906;28;20470;-72
2021/08/31 07:21:15;;;;;;;33.70;20.87;;;;;;;;;;5096522;28;20439;-73
2021/08/31 07:23:42;;;;;;;30.40;20.97;;;;;;;;;;5096797;28;20450;-72
2021/08/31 07:26:11;;;;;;;37.80;20.30;;;;;;;;;;5096486;28;20436;-73
2021/08/31 07:28:38;;;;;;;26.77;21.43;;;;;;;;;;5096682;28;20440;-73
2021/08/31 07:31:05;;;;;;;27.30;19.40;;;;;;;;;;5096964;28;20440;-73
2021/08/31 07:33:32;;;;;;;30.50;20.13;;;;;;;;;;5096728;28;20534;-72
2021/08/31 07:36:00;;;;;;;27.87;20.60;;;;;;;;;;5096165;28;20569;-73
2021/08/31 07:38:27;;;;;;;31.07;20.87;;;;;;;;;;5096559;28;20480;-73
2021/08/31 07:40:54;;;;;;;28.37;20.13;;;;;;;;;;5096154;28;20933;-73
2021/08/31 07:43:24;;;;;;;28.43;20.90;;;;;;;;;;5096082;28;20952;-74
2021/08/31 07:45:51;;;;;;;29.20;20.03;;;;;;;;;;5096828;28;20470;-73
2021/08/31 07:48:19;;;;;;;30.97;20.47;;;;;;;;;;5096213;28;20436;-73
2021/08/31 07:50:46;;;;;;;30.00;18.50;;;;;;;;;;5096137;28;20447;-73
2021/08/31 07:53:13;;;;;;;27.43;19.43;;;;;;;;;;5096283;28;21049;-73
2021/08/31 07:55:40;;;;;;;25.20;19.33;;;;;;;;;;5096108;28;20842;-73
2021/08/31 07:58:07;;;;;;;29.20;19.97;;;;;;;;;;5096160;28;20540;-73
2021/08/31 08:00:39;;;;;;;23.90;18.20;;;;;;;;;;5096462;28;20472;-73
2021/08/31 08:03:06;;;;;;;26.70;17.50;;;;;;;;;;5096246;28;20429;-73
2021/08/31 08:05:33;;;;;;;24.73;17.33;;;;;;;;;;5095999;28;20444;-73
2021/08/31 08:08:01;;;;;;;24.67;17.40;;;;;;;;;;5096386;28;20478;-74
2021/08/31 08:10:28;;;;;;;23.50;16.60;;;;;;;;;;5095584;28;20447;-74
2021/08/31 08:12:55;;;;;;;21.90;16.73;;;;;;;;;;5095874;28;20453;-73
2021/08/31 08:15:23;;;;;;;26.97;16.10;;;;;;;;;;5095830;28;20548;-73
2021/08/31 08:17:52;;;;;;;29.90;17.07;;;;;;;;;;5094593;28;20445;-74
2021/08/31 08:20:19;;;;;;;16.53;14.43;;;;;;;;;;5095340;28;20441;-73
2021/08/31 08:22:46;;;;;;;20.60;15.07;;;;;;;;;;5095502;28;20456;-72
2021/08/31 08:25:14;;;;;;;23.67;15.23;;;;;;;;;;5095645;28;20538;-72
2021/08/31 08:27:42;;;;;;;20.57;14.00;;;;;;;;;;5095592;28;20444;-72
2021/08/31 08:30:10;;;;;;;20.60;14.47;;;;;;;;;;5095209;28;20448;-72
2021/08/31 08:32:47;;;;;;;17.47;14.57;;;;;;;;;;5095485;28;20532;-72
2021/08/31 08:35:16;;;;;;;16.47;13.03;;;;;;;;;;5095152;28;20509;-71
2021/08/31 08:37:44;;;;;;;18.73;13.37;;;;;;;;;;5095201;28;20566;-73
2021/08/31 08:40:11;;;;;;;23.60;14.60;;;;;;;;;;5094997;28;20446;-72
2021/08/31 08:42:39;;;;;;;19.67;15.57;;;;;;;;;;5095239;28;20444;-72
2021/08/31 08:45:07;;;;;;;22.27;13.27;;;;;;;;;;5095578;28;20482;-72
2021/08/31 08:47:34;;;;;;;19.93;13.57;;;;;;;;;;5095383;28;20447;-72
2021/08/31 08:50:02;;;;;;;17.47;13.63;;;;;;;;;;5095102;28;20543;-73
2021/08/31 08:52:30;;;;;;;17.50;13.60;;;;;;;;;;5094751;28;20525;-72
2021/08/31 08:54:57;;;;;;;15.70;12.63;;;;;;;;;;5095308;28;20446;-73
2021/08/31 08:57:28;;;;;;;20.77;15.83;;;;;;;;;;5094901;28;20471;-72
2021/08/31 08:59:55;;;;;;;18.37;15.83;;;;;;;;;;5095248;28;20424;-72
2021/08/31 09:02:32;;;;;;;21.03;13.13;;;;;;;;;;5094872;28;20444;-72
2021/08/31 09:05:00;;;;;;;15.60;13.10;;;;;;;;;;5094829;28;20803;-73
2021/08/31 09:07:28;;;;;;;18.83;13.93;;;;;;;;;;5094475;28;20995;-72
2021/08/31 09:10:11;;;;;;;14.37;12.80;;;;;;;;;;5094368;28;20448;-73
2021/08/31 09:12:40;;;;;;;16.80;13.07;;;;;;;;;;5094978;28;20444;-72
2021/08/31 09:15:24;;;;;;;17.97;12.10;;;;;;;;;;5094668;28;20519;-73
2021/08/31 09:18:18;;;;;;;13.13;11.60;;;;;;;;;;5095016;28;20469;-72
2021/08/31 09:20:47;;;;;;;16.90;13.80;;;;;;;;;;5058681;28;20444;-73
2021/08/31 09:23:19;;;;;;;14.20;12.23;;;;;;;;;;5094844;28;20538;-73
2021/08/31 09:25:48;;;;;;;18.83;11.73;;;;;;;;;;5094692;28;20466;-72
2021/08/31 09:28:27;;;;;;;15.00;12.30;;;;;;;;;;5094437;28;20441;-73
2021/08/31 09:30:59;;;;;;;14.53;11.57;;;;;;;;;;5094513;28;20428;-73
2021/08/31 09:33:29;;;;;;;12.73;10.87;;;;;;;;;;5094013;28;20466;-73
2021/08/31 09:36:10;;;;;;;12.20;10.67;;;;;;;;;;5093738;28;20455;-72
2021/08/31 09:38:55;;;;;;;11.83;9.50;;;;;;;;;;5094708;28;20429;-73
2021/08/31 09:41:29;;;;;;;17.33;10.87;;;;;;;;;;5094515;28;20496;-73
2021/08/31 09:43:58;;;;;;;12.20;10.53;;;;;;;;;;5094217;28;20438;-72
2021/08/31 09:46:25;;;;;;;14.63;10.80;;;;;;;;;;5093715;28;20452;-73
2021/08/31 09:48:52;;;;;;;13.33;11.20;;;;;;;;;;5094014;28;20444;-72
2021/08/31 09:51:20;;;;;;;12.40;11.10;;;;;;;;;;5094329;28;20440;-72
2021/08/31 09:53:47;;;;;;;12.33;11.00;;;;;;;;;;5093947;28;20474;-72
2021/08/31 09:56:15;;;;;;;14.60;11.60;;;;;;;;;;5093553;28;20444;-72
2021/08/31 09:58:44;;;;;;;15.20;10.80;;;;;;;;;;5093968;28;20538;-73
2021/08/31 10:01:13;;;;;;;11.53;10.30;;;;;;;;;;5093599;28;20441;-72
2021/08/31 10:03:41;;;;;;;11.60;9.70;;;;;;;;;;5093450;28;20946;-73
2021/08/31 10:06:08;;;;;;;9.77;8.23;;;;;;;;;;5093500;28;20447;-72
2021/08/31 10:08:38;;;;;;;8.00;7.23;;;;;;;;;;5093810;28;20805;-72
2021/08/31 10:11:06;;;;;;;9.93;7.83;;;;;;;;;;5093582;28;20517;-73
2021/08/31 10:13:37;;;;;;;12.17;8.17;;;;;;;;;;5093657;28;20442;-72
2021/08/31 10:16:04;;;;;;;10.63;9.00;;;;;;;;;;5093414;28;20919;-73
2021/08/31 10:18:33;;;;;;;8.43;7.53;;;;;;;;;;5093653;28;20441;-72
2021/08/31 10:21:02;;;;;;;10.30;7.73;;;;;;;;;;5093512;28;20531;-72
2021/08/31 10:23:31;;;;;;;18.17;13.70;;;;;;;;;;5093268;28;20450;-72
2021/08/31 10:26:13;;;;;;;8.20;7.33;;;;;;;;;;5093572;28;20478;-72
2021/08/31 10:28:40;;;;;;;7.90;7.10;;;;;;;;;;5093325;28;20524;-72
2021/08/31 10:31:07;;;;;;;8.13;7.33;;;;;;;;;;5093252;28;20459;-73
2021/08/31 10:33:38;;;;;;;11.60;6.50;;;;;;;;;;5093522;28;20469;-73
2021/08/31 10:36:07;;;;;;;25.13;7.97;;;;;;;;;;5094133;28;20441;-73
2021/08/31 10:38:45;;;;;;;8.63;6.33;;;;;;;;;;5093831;28;20483;-73
2021/08/31 10:41:30;;;;;;;10.53;7.13;;;;;;;;;;5097439;28;20440;-73
2021/08/31 10:43:58;;;;;;;11.07;7.07;;;;;;;;;;5097617;28;20472;-73
2021/08/31 10:46:25;;;;;;;8.10;6.50;;;;;;;;;;5097238;28;20454;-73
2021/08/31 10:49:02;;;;;;;7.13;5.90;;;;;;;;;;5097692;28;20468;-73
2021/08/31 10:51:29;;;;;;;6.80;6.07;;;;;;;;;;5097194;28;20432;-74
2021/08/31 10:53:56;;;;;;;6.97;5.57;;;;;;;;;;5097276;28;20606;-73
2021/08/31 10:56:27;;;;;;;5.50;4.93;;;;;;;;;;5097782;28;20866;-72
2021/08/31 10:58:55;;;;;;;5.80;5.30;;;;;;;;;;5097659;28;20484;-72
2021/08/31 11:01:29;;;;;;;6.83;5.50;;;;;;;;;;5097185;28;20468;-73
2021/08/31 11:04:04;;;;;;;6.53;5.90;;;;;;;;;;5097785;28;20495;-72
2021/08/31 11:06:37;;;;;;;6.27;5.10;;;;;;;;;;5097036;28;20424;-73
2021/08/31 11:09:20;;;;;;;7.03;5.50;;;;;;;;;;5097240;28;20854;-73
2021/08/31 11:11:51;;;;;;;7.33;5.30;;;;;;;;;;5096979;28;20601;-72
2021/08/31 11:14:19;;;;;;;5.63;4.90;;;;;;;;;;5097328;28;20442;-73
2021/08/31 11:16:48;;;;;;;6.13;5.00;;;;;;;;;;5096579;28;20480;-71
2021/08/31 11:19:27;;;;;;;5.90;5.30;;;;;;;;;;5096952;28;20448;-71
2021/08/31 11:21:55;;;;;;;8.27;5.50;;;;;;;;;;5096648;28;20460;-72
2021/08/31 11:24:22;;;;;;;8.63;7.50;;;;;;;;;;5097093;28;20857;-71
2021/08/31 11:26:49;;;;;;;9.50;5.97;;;;;;;;;;5096799;28;20861;-72
2021/08/31 11:29:17;;;;;;;5.70;5.10;;;;;;;;;;5096795;28;20444;-71
2021/08/31 11:31:44;;;;;;;5.77;4.87;;;;;;;;;;5096703;28;20443;-72
2021/08/31 11:34:11;;;;;;;6.03;5.10;;;;;;;;;;5096672;28;20447;-71
2021/08/31 11:36:41;;;;;;;6.60;6.00;;;;;;;;;;5096387;28;20438;-71
2021/08/31 11:39:12;;;;;;;10.60;5.40;;;;;;;;;;5097120;28;20454;-72
2021/08/31 11:41:40;;;;;;;5.87;5.17;;;;;;;;;;5096355;28;20782;-72
2021/08/31 11:44:11;;;;;;;6.40;5.80;;;;;;;;;;5096360;28;20439;-72
2021/08/31 11:46:40;;;;;;;7.20;5.93;;;;;;;;;;5096222;28;20449;-71
2021/08/31 11:49:09;;;;;;;6.20;4.77;;;;;;;;;;5095981;28;20450;-71
2021/08/31 11:51:36;;;;;;;5.93;5.33;;;;;;;;;;5095327;28;20544;-71
2021/08/31 11:54:05;;;;;;;6.67;5.90;;;;;;;;;;5096120;28;20482;-72
2021/08/31 11:56:32;;;;;;;6.03;5.43;;;;;;;;;;5096532;28;20439;-71
2021/08/31 11:58:59;;;;;;;5.97;5.40;;;;;;;;;;5096024;28;20485;-71
2021/08/31 12:01:27;;;;;;;6.13;5.53;;;;;;;;;;5095775;28;20529;-71
2021/08/31 12:03:54;;;;;;;5.90;5.20;;;;;;;;;;5095790;28;20487;-71
2021/08/31 12:06:22;;;;;;;7.50;6.33;;;;;;;;;;5096100;28;20443;-71
2021/08/31 12:08:49;;;;;;;7.17;5.60;;;;;;;;;;5095949;28;20443;-71
2021/08/31 12:11:18;;;;;;;6.20;5.60;;;;;;;;;;5095692;28;20450;-71
2021/08/31 12:13:46;;;;;;;7.17;5.60;;;;;;;;;;5096416;28;20749;-71
2021/08/31 12:16:14;;;;;;;7.90;5.80;;;;;;;;;;5096064;28;20444;-71
2021/08/31 12:18:41;;;;;;;6.87;5.93;;;;;;;;;;5095705;28;20474;-70
2021/08/31 12:21:16;;;;;;;6.90;6.03;;;;;;;;;;5095708;28;20538;-71
2021/08/31 12:23:44;;;;;;;7.10;4.50;;;;;;;;;;5095294;28;20885;-71
2021/08/31 12:26:11;;;;;;;6.67;6.07;;;;;;;;;;5095613;28;20874;-72
2021/08/31 12:28:53;;;;;;;6.70;5.03;;;;;;;;;;5095554;28;20453;-72
2021/08/31 12:31:21;;;;;;;6.10;5.50;;;;;;;;;;5095286;28;20435;-71
2021/08/31 12:33:49;;;;;;;6.20;5.63;;;;;;;;;;5095432;28;20793;-72
2021/08/31 12:36:16;;;;;;;6.97;6.07;;;;;;;;;;5095106;28;20929;-71
2021/08/31 12:38:46;;;;;;;5.27;4.77;;;;;;;;;;5094640;28;21067;-71
2021/08/31 12:41:20;;;;;;;6.47;5.70;;;;;;;;;;5095085;28;20449;-68
2021/08/31 12:43:48;;;;;;;5.33;4.67;;;;;;;;;;5095383;28;20785;-70
2021/08/31 12:46:23;;;;;;;6.83;4.70;;;;;;;;;;5094904;28;20439;-70
2021/08/31 12:48:51;;;;;;;7.80;5.47;;;;;;;;;;5094860;28;20802;-70
2021/08/31 12:51:30;;;;;;;5.57;4.90;;;;;;;;;;5094825;28;20436;-70
2021/08/31 12:53:57;;;;;;;5.90;5.40;;;;;;;;;;5094940;28;20528;-71
2021/08/31 12:56:24;;;;;;;5.50;4.97;;;;;;;;;;5095568;28;20445;-70
2021/08/31 12:59:02;;;;;;;5.33;4.83;;;;;;;;;;5094941;28;20475;-70
2021/08/31 13:01:30;;;;;;;5.60;5.10;;;;;;;;;;5095323;28;20436;-71
2021/08/31 13:03:59;;;;;;;4.53;4.17;;;;;;;;;;5093407;28;20960;-71
2021/08/31 13:06:36;;;;;;;5.13;4.57;;;;;;;;;;5094059;28;20440;-71
2021/08/31 13:09:05;;;;;;;5.13;4.63;;;;;;;;;;5094817;28;20423;-71
2021/08/31 13:11:32;;;;;;;5.30;4.80;;;;;;;;;;5094013;28;20530;-71
2021/08/31 13:13:59;;;;;;;4.80;4.33;;;;;;;;;;5094349;28;20531;-71
2021/08/31 13:16:26;;;;;;;6.00;4.83;;;;;;;;;;5094192;28;20535;-71
2021/08/31 13:18:55;;;;;;;5.23;4.67;;;;;;;;;;5094404;28;20471;-72
2021/08/31 13:21:22;;;;;;;7.50;4.97;;;;;;;;;;5094135;28;20504;-71
2021/08/31 13:23:49;;;;;;;5.63;5.10;;;;;;;;;;5093898;28;20545;-71
2021/08/31 13:26:19;;;;;;;5.00;4.33;;;;;;;;;;5094434;28;20439;-71
2021/08/31 13:28:47;;;;;;;4.73;4.33;;;;;;;;;;5094312;28;20538;-71
2021/08/31 13:31:14;;;;;;;6.97;4.73;;;;;;;;;;5094233;28;20532;-72
2021/08/31 13:33:42;;;;;;;9.43;5.57;;;;;;;;;;5093786;28;20869;-71
2021/08/31 13:36:10;;;;;;;6.43;5.17;;;;;;;;;;5092545;28;20461;-71
2021/08/31 13:38:38;;;;;;;5.60;4.60;;;;;;;;;;5094128;28;20518;-71
2021/08/31 13:41:05;;;;;;;4.93;4.50;;;;;;;;;;5093859;28;20442;-72
2021/08/31 13:43:32;;;;;;;4.70;4.30;;;;;;;;;;5093620;28;20534;-71
2021/08/31 13:45:59;;;;;;;5.40;4.47;;;;;;;;;;5093956;28;20797;-72
2021/08/31 13:48:28;;;;;;;5.60;5.10;;;;;;;;;;5093645;28;20511;-67
2021/08/31 13:50:55;;;;;;;6.00;4.23;;;;;;;;;;5094127;28;20469;-71
2021/08/31 13:53:24;;;;;;;7.80;4.60;;;;;;;;;;5093008;28;20566;-71
2021/08/31 13:55:51;;;;;;;5.03;4.50;;;;;;;;;;5093541;28;20443;-71
2021/08/31 13:58:18;;;;;;;4.57;4.17;;;;;;;;;;5093045;28;20566;-72
2021/08/31 14:00:46;;;;;;;5.00;4.60;;;;;;;;;;5093620;28;20447;-71
2021/08/31 14:03:14;;;;;;;5.00;4.60;;;;;;;;;;5093891;28;20523;-72
2021/08/31 14:05:41;;;;;;;6.50;4.70;;;;;;;;;;5091428;28;20448;-71
2021/08/31 14:08:09;;;;;;;6.77;4.87;;;;;;;;;;5093251;28;20850;-72
2021/08/31 14:10:38;;;;;;;6.20;4.50;;;;;;;;;;5093697;28;20520;-70
2021/08/31 14:13:05;;;;;;;7.07;5.20;;;;;;;;;;5093493;28;20442;-70
2021/08/31 14:15:33;;;;;;;4.70;4.30;;;;;;;;;;5092911;28;20437;-71
2021/08/31 14:18:00;;;;;;;5.33;4.43;;;;;;;;;;5092992;28;20570;-70
2021/08/31 14:20:27;;;;;;;4.17;3.77;;;;;;;;;;5093754;28;20516;-71
2021/08/31 14:22:55;;;;;;;6.07;5.30;;;;;;;;;;5093615;28;20461;-70
2021/08/31 14:25:22;;;;;;;5.00;4.47;;;;;;;;;;5093185;28;20804;-70
2021/08/31 14:27:51;;;;;;;6.63;4.30;;;;;;;;;;5092929;28;20954;-71
2021/08/31 14:30:18;;;;;;;6.40;4.40;;;;;;;;;;5092592;28;20452;-71
2021/08/31 14:32:45;;;;;;;7.67;4.77;;;;;;;;;;5093278;28;20437;-71